createdAt,value
2022-10-09T00:01:09.862Z,94731.56
2022-10-09T00:03:39.021Z,94728.22
2022-10-09T00:06:07.088Z,94734.47
2022-10-09T00:08:41.093Z,94734.63
2022-10-09T00:11:09.009Z,94733.88
2022-10-09T00:13:36.426Z,94741.69
2022-10-09T00:16:07.910Z,94738.88
2022-10-09T00:18:35.128Z,94739.69
2022-10-09T00:21:02.626Z,94735.31
2022-10-09T00:23:29.995Z,94743.16
2022-10-09T00:25:58.841Z,94739.81
2022-10-09T00:28:27.970Z,94738.94
2022-10-09T00:30:55.152Z,94736.06
2022-10-09T00:33:22.423Z,94734.31
2022-10-09T00:35:49.318Z,94733.44
2022-10-09T00:38:16.599Z,94729.97
2022-10-09T00:40:43.479Z,94736.63
2022-10-09T00:43:19.664Z,94738.19
2022-10-09T00:45:54.577Z,94736.31
2022-10-09T00:48:21.821Z,94737.06
2022-10-09T00:50:49.949Z,94748.63
2022-10-09T00:53:18.592Z,94743.03
2022-10-09T00:55:45.834Z,94733.41
2022-10-09T00:58:13.481Z,94723.72
2022-10-09T01:00:40.718Z,94728.88
2022-10-09T01:03:07.628Z,94729.97
2022-10-09T01:06:11.640Z,94728.78
2022-10-09T01:09:03.380Z,94727.34
2022-10-09T01:11:54.780Z,94724.22
2022-10-09T01:14:42.380Z,94718.31
2022-10-09T01:17:24.917Z,94719.22
2022-10-09T01:20:10.210Z,94716.03
2022-10-09T01:23:14.370Z,94703.09
2022-10-09T01:26:15.760Z,94713.09
2022-10-09T01:28:45.436Z,94725.44
2022-10-09T01:31:13.053Z,94713.06
2022-10-09T01:33:40.007Z,94720.22
2022-10-09T01:36:07.711Z,94719.38
2022-10-09T01:38:34.950Z,94714.31
2022-10-09T01:41:03.460Z,94717.28
2022-10-09T01:43:30.101Z,94714.66
2022-10-09T01:46:27.131Z,94707.88
2022-10-09T01:49:39.747Z,94716.03
2022-10-09T01:52:32.071Z,94710.25
2022-10-09T01:55:25.171Z,94710.34
2022-10-09T01:58:07.680Z,94708.00
2022-10-09T02:00:40.757Z,94705.50
2022-10-09T02:03:10.664Z,94710.72
2022-10-09T02:05:38.720Z,94710.84
2022-10-09T02:08:05.529Z,94712.44
2022-10-09T02:10:32.880Z,94702.00
2022-10-09T02:13:00.570Z,94702.31
2022-10-09T02:15:32.219Z,94705.53
2022-10-09T02:18:03.219Z,94708.56
2022-10-09T02:20:35.699Z,94710.69
2022-10-09T02:23:04.835Z,94703.13
2022-10-09T02:25:31.720Z,94711.56
2022-10-09T02:27:58.649Z,94702.97
2022-10-09T02:30:25.666Z,94703.03
2022-10-09T02:32:53.617Z,94700.06
2022-10-09T02:35:21.001Z,94699.28
2022-10-09T02:37:49.259Z,94702.66
2022-10-09T02:40:16.174Z,94696.78
2022-10-09T02:42:42.867Z,94697.53
2022-10-09T02:45:10.039Z,94698.47
2022-10-09T02:47:36.729Z,94698.03
2022-10-09T02:50:03.578Z,94705.66
2022-10-09T02:52:30.255Z,94706.88
2022-10-09T02:54:56.927Z,94704.09
2022-10-09T02:57:23.680Z,94703.25
2022-10-09T02:59:50.377Z,94702.06
2022-10-09T03:02:17.213Z,94701.22
2022-10-09T03:04:44.060Z,94714.31
2022-10-09T03:07:11.370Z,94704.88
2022-10-09T03:09:38.090Z,94708.09
2022-10-09T03:12:05.153Z,94712.91
2022-10-09T03:14:31.800Z,94713.88
2022-10-09T03:16:58.505Z,94718.50
2022-10-09T03:19:25.236Z,94720.31
2022-10-09T03:21:51.970Z,94707.97
2022-10-09T03:24:18.640Z,94707.97
2022-10-09T03:26:45.282Z,94706.94
2022-10-09T03:29:11.949Z,94712.16
2022-10-09T03:31:52.032Z,94712.56
2022-10-09T03:34:19.370Z,94709.56
2022-10-09T03:36:46.209Z,94710.38
2022-10-09T03:39:12.879Z,94717.84
2022-10-09T03:41:39.557Z,94712.88
2022-10-09T03:44:06.380Z,94713.41
2022-10-09T03:46:33.172Z,94710.78
2022-10-09T03:48:59.892Z,94713.41
2022-10-09T03:51:26.771Z,94713.03
2022-10-09T03:53:53.420Z,94716.03
2022-10-09T03:56:20.178Z,94709.38
2022-10-09T03:58:46.860Z,94714.38
2022-10-09T04:01:13.683Z,94712.00
2022-10-09T04:03:40.355Z,94717.81
2022-10-09T04:06:07.170Z,94711.66
2022-10-09T04:08:35.086Z,94708.97
2022-10-09T04:11:01.790Z,94708.59
2022-10-09T04:13:28.541Z,94708.41
2022-10-09T04:15:56.294Z,94711.50
2022-10-09T04:18:24.542Z,94710.25
2022-10-09T04:20:52.376Z,94701.81
2022-10-09T04:23:20.088Z,94717.44
2022-10-09T04:25:46.766Z,94720.94
2022-10-09T04:28:13.490Z,94717.50
2022-10-09T04:30:40.045Z,94714.09
2022-10-09T04:33:11.820Z,94715.13
2022-10-09T04:35:43.663Z,94715.13
2022-10-09T04:38:10.520Z,94722.66
2022-10-09T04:40:37.191Z,94725.44
2022-10-09T04:43:04.157Z,94719.44
2022-10-09T04:45:30.784Z,94722.16
2022-10-09T04:47:57.377Z,94713.56
2022-10-09T04:50:24.182Z,94715.53
2022-10-09T04:52:51.219Z,94709.53
2022-10-09T04:55:18.137Z,94715.75
2022-10-09T04:57:44.755Z,94712.16
2022-10-09T05:00:12.153Z,94711.56
2022-10-09T05:02:38.872Z,94710.97
2022-10-09T05:05:05.773Z,94722.66
2022-10-09T05:07:32.398Z,94709.25
2022-10-09T05:09:58.916Z,94704.78
2022-10-09T05:12:25.514Z,94708.75
2022-10-09T05:14:52.073Z,94708.97
2022-10-09T05:17:23.033Z,94710.16
2022-10-09T05:19:50.205Z,94702.75
2022-10-09T05:22:16.924Z,94706.56
2022-10-09T05:24:43.488Z,94717.03
2022-10-09T05:27:10.062Z,94710.19
2022-10-09T05:29:36.676Z,94707.38
2022-10-09T05:32:03.411Z,94712.22
2022-10-09T05:34:30.040Z,94720.44
2022-10-09T05:36:56.624Z,94726.28
2022-10-09T05:39:23.405Z,94723.75
2022-10-09T05:41:49.989Z,94731.47
2022-10-09T05:44:16.550Z,94728.66
2022-10-09T05:46:43.092Z,94738.47
2022-10-09T05:49:09.960Z,94736.09
2022-10-09T05:51:38.780Z,94742.69
2022-10-09T05:54:06.409Z,94732.66
2022-10-09T05:56:35.561Z,94740.03
2022-10-09T05:59:07.369Z,94743.22
2022-10-09T06:01:39.571Z,94745.66
2022-10-09T06:04:09.453Z,94742.59
2022-10-09T06:06:37.792Z,94745.75
2022-10-09T06:09:05.716Z,94755.41
2022-10-09T06:11:34.640Z,94758.59
2022-10-09T06:14:04.568Z,94758.19
2022-10-09T06:16:37.867Z,94759.94
2022-10-09T06:19:05.221Z,94755.47
2022-10-09T06:21:33.124Z,94755.91
2022-10-09T06:24:01.190Z,94751.88
2022-10-09T06:26:29.513Z,94755.06
2022-10-09T06:29:00.927Z,94759.22
2022-10-09T06:31:30.339Z,94761.75
2022-10-09T06:33:59.101Z,94754.97
2022-10-09T06:36:30.551Z,94765.97
2022-10-09T06:39:02.016Z,94760.81
2022-10-09T06:41:29.337Z,94758.78
2022-10-09T06:43:58.001Z,94762.03
2022-10-09T06:46:27.017Z,94763.47
2022-10-09T06:48:53.696Z,94770.19
2022-10-09T06:51:22.162Z,94768.94
2022-10-09T06:53:54.032Z,94772.19
2022-10-09T06:56:23.481Z,94772.66
2022-10-09T06:58:50.721Z,94773.50
2022-10-09T07:01:31.003Z,94777.28
2022-10-09T07:04:11.240Z,94786.31
2022-10-09T07:06:40.058Z,94791.41
2022-10-09T07:09:08.681Z,94783.00
2022-10-09T07:11:40.260Z,94792.66
2022-10-09T07:14:08.610Z,94799.78
2022-10-09T07:16:37.441Z,94795.75
2022-10-09T07:19:07.658Z,94798.97
2022-10-09T07:21:35.671Z,94806.47
2022-10-09T07:24:03.680Z,94797.94
2022-10-09T07:26:32.033Z,94799.34
2022-10-09T07:28:59.021Z,94798.50
2022-10-09T07:31:26.076Z,94808.09
2022-10-09T07:33:55.063Z,94810.53
2022-10-09T07:36:21.859Z,94810.91
2022-10-09T07:38:58.436Z,94817.00
2022-10-09T07:41:26.698Z,94816.88
2022-10-09T07:43:53.459Z,94818.03
2022-10-09T07:46:23.829Z,94817.06
2022-10-09T07:48:51.244Z,94817.56
2022-10-09T07:51:25.947Z,94831.06
2022-10-09T07:53:53.330Z,94829.28
2022-10-09T07:56:22.184Z,94832.22
2022-10-09T07:59:00.510Z,94831.78
2022-10-09T08:01:28.303Z,94827.22
2022-10-09T08:03:55.597Z,94838.13
2022-10-09T08:06:22.691Z,94821.72
2022-10-09T08:08:50.813Z,94819.25
2022-10-09T08:11:18.758Z,94813.94
2022-10-09T08:13:46.561Z,94811.56
2022-10-09T08:16:13.714Z,94802.19
2022-10-09T08:18:40.672Z,94792.56
2022-10-09T08:21:12.429Z,94809.94
2022-10-09T08:23:40.713Z,94818.84
2022-10-09T08:26:18.738Z,94818.56
2022-10-09T08:28:53.176Z,94826.41
2022-10-09T08:31:20.769Z,94825.69
2022-10-09T08:33:47.563Z,94828.28
2022-10-09T08:36:15.463Z,94830.75
2022-10-09T08:38:47.569Z,94832.41
2022-10-09T08:41:23.959Z,94835.13
2022-10-09T08:43:55.132Z,94829.16
2022-10-09T08:46:47.273Z,94834.91
2022-10-09T08:49:27.027Z,94833.00
2022-10-09T08:51:54.732Z,94833.28
2022-10-09T08:54:36.782Z,94839.59
2022-10-09T08:57:06.812Z,94851.38
2022-10-09T08:59:33.545Z,94837.91
2022-10-09T09:02:32.046Z,94833.09
2022-10-09T09:05:35.973Z,94839.44
2022-10-09T09:08:30.113Z,94836.69
2022-10-09T09:11:30.984Z,94845.41
2022-10-09T09:14:10.753Z,94842.91
2022-10-09T09:17:02.520Z,94846.41
2022-10-09T09:19:31.920Z,94835.13
2022-10-09T09:21:58.953Z,94837.25
2022-10-09T09:24:48.088Z,94854.38
2022-10-09T09:27:19.314Z,94845.94
2022-10-09T09:29:55.013Z,94835.50
2022-10-09T09:32:24.705Z,94840.22
2022-10-09T09:34:53.293Z,94834.69
2022-10-09T09:37:20.009Z,94829.59
2022-10-09T09:42:33.383Z,94831.19
2022-10-09T09:45:04.127Z,94835.38
2022-10-09T09:47:35.214Z,94819.88
2022-10-09T09:50:04.097Z,94819.47
2022-10-09T09:52:36.117Z,94825.13
2022-10-09T09:55:02.967Z,94820.56
2022-10-09T09:57:33.443Z,94820.19
2022-10-09T10:00:10.815Z,94819.97
2022-10-09T10:02:37.451Z,94808.19
2022-10-09T10:05:22.084Z,94813.31
2022-10-09T10:07:50.351Z,94797.72
2022-10-09T10:10:25.719Z,94795.28
2022-10-09T10:12:53.093Z,94795.03
2022-10-09T10:15:30.968Z,94792.59
2022-10-09T10:18:07.533Z,94793.78
2022-10-09T10:20:54.079Z,94791.13
2022-10-09T10:23:50.162Z,94788.97
2022-10-09T10:26:38.979Z,94791.94
2022-10-09T10:29:05.558Z,94786.88
2022-10-09T10:32:09.448Z,94778.91
2022-10-09T10:34:43.409Z,94779.84
2022-10-09T10:37:13.273Z,94773.56
2022-10-09T10:40:07.872Z,94769.19
2022-10-09T10:42:58.665Z,94766.78
2022-10-09T10:45:44.287Z,94764.03
2022-10-09T10:48:19.033Z,94766.91
2022-10-09T10:51:10.117Z,94766.53
2022-10-09T10:54:17.823Z,94767.69
2022-10-09T10:56:56.387Z,94762.19
2022-10-09T10:59:43.102Z,94767.44
2022-10-09T11:02:44.236Z,94760.59
2022-10-09T11:05:22.275Z,94760.47
2022-10-09T11:08:00.183Z,94753.81
2022-10-09T11:10:45.842Z,94757.38
2022-10-09T11:13:20.727Z,94742.78
2022-10-09T11:16:23.499Z,94743.97
2022-10-09T11:19:08.279Z,94740.34
2022-10-09T11:21:57.836Z,94744.69
2022-10-09T11:24:53.002Z,94739.97
2022-10-09T11:27:22.482Z,94723.97
2022-10-09T11:29:53.570Z,94734.16
2022-10-09T11:32:35.035Z,94721.47
2022-10-09T11:35:43.126Z,94720.56
2022-10-09T11:38:25.847Z,94713.94
2022-10-09T11:40:53.755Z,94711.72
2022-10-09T11:43:26.461Z,94713.28
2022-10-09T11:46:19.396Z,94701.59
2022-10-09T11:48:55.016Z,94697.78
2022-10-09T11:51:49.038Z,94695.47
2022-10-09T11:54:18.166Z,94692.41
2022-10-09T11:56:56.619Z,94687.19
2022-10-09T11:59:28.929Z,94685.63
2022-10-09T12:01:56.614Z,94683.97
2022-10-09T12:04:53.458Z,94672.91
2022-10-09T12:10:33.666Z,94662.03
2022-10-09T12:13:03.829Z,94661.22
2022-10-09T12:15:40.979Z,94658.44
2022-10-09T12:18:38.517Z,94655.81
2022-10-09T12:21:07.831Z,94651.91
2022-10-09T12:23:38.133Z,94655.34
2022-10-09T12:26:05.085Z,94638.88
2022-10-09T12:28:50.265Z,94646.22
2022-10-09T12:31:32.583Z,94637.31
2022-10-09T12:34:06.536Z,94631.59
2022-10-09T12:36:34.244Z,94624.81
2022-10-09T12:39:13.444Z,94631.03
2022-10-09T12:41:41.585Z,94629.25
2022-10-09T12:44:19.078Z,94615.66
2022-10-09T12:46:45.759Z,94621.94
2022-10-09T12:49:20.603Z,94619.06
2022-10-09T12:51:56.436Z,94619.34
2022-10-09T12:54:25.305Z,94615.34
2022-10-09T12:56:53.186Z,94619.63
2022-10-09T12:59:20.862Z,94612.22
2022-10-09T13:01:48.222Z,94604.06
2022-10-09T13:04:26.303Z,94607.19
2022-10-09T13:06:53.580Z,94603.53
2022-10-09T13:09:48.341Z,94603.25
2022-10-09T13:12:23.679Z,94600.50
2022-10-09T13:14:55.610Z,94600.06
2022-10-09T13:17:40.043Z,94589.03
2022-10-09T13:20:12.563Z,94586.59
2022-10-09T13:22:39.894Z,94598.72
2022-10-09T13:25:07.120Z,94593.25
2022-10-09T13:27:35.504Z,94582.16
2022-10-09T13:30:02.329Z,94580.03
2022-10-09T13:32:29.134Z,94581.59
2022-10-09T13:34:58.079Z,94577.91
2022-10-09T13:37:26.430Z,94578.97
2022-10-09T13:39:54.897Z,94576.59
2022-10-09T13:42:22.375Z,94573.75
2022-10-09T13:44:49.066Z,94570.81
2022-10-09T13:47:18.572Z,94574.28
2022-10-09T13:49:47.469Z,94565.56
2022-10-09T13:52:14.162Z,94557.09
2022-10-09T13:54:40.949Z,94557.09
2022-10-09T13:57:07.750Z,94557.91
2022-10-09T13:59:34.526Z,94547.88
2022-10-09T14:02:01.327Z,94548.41
2022-10-09T14:04:28.779Z,94548.69
2022-10-09T14:06:55.536Z,94541.81
2022-10-09T14:09:22.806Z,94547.63
2022-10-09T14:11:49.551Z,94543.94
2022-10-09T14:14:16.370Z,94545.00
2022-10-09T14:16:43.232Z,94540.50
2022-10-09T14:19:10.164Z,94544.97
2022-10-09T14:21:36.869Z,94537.88
2022-10-09T14:24:03.878Z,94537.31
2022-10-09T14:26:31.468Z,94532.59
2022-10-09T14:29:02.913Z,94537.56
2022-10-09T14:31:30.070Z,94536.69
2022-10-09T14:33:59.651Z,94549.72
2022-10-09T14:36:26.723Z,94538.22
2022-10-09T14:38:53.872Z,94540.06
2022-10-09T14:41:21.129Z,94537.97
2022-10-09T14:43:49.011Z,94547.94
2022-10-09T14:46:17.509Z,94547.66
2022-10-09T14:48:45.561Z,94543.66
2022-10-09T14:51:17.549Z,94545.56
2022-10-09T14:53:44.757Z,94535.81
2022-10-09T14:56:14.908Z,94541.22
2022-10-09T14:58:42.337Z,94535.84
2022-10-09T15:01:15.211Z,94539.72
2022-10-09T15:03:42.097Z,94531.19
2022-10-09T15:06:10.670Z,94526.13
2022-10-09T15:08:40.549Z,94532.28
2022-10-09T15:11:07.817Z,94537.72
2022-10-09T15:13:35.649Z,94534.22
2022-10-09T15:16:07.808Z,94533.31
2022-10-09T15:18:34.601Z,94535.97
2022-10-09T15:21:01.891Z,94529.34
2022-10-09T15:23:29.193Z,94530.56
2022-10-09T15:25:57.792Z,94531.63
2022-10-09T15:28:25.008Z,94537.47
2022-10-09T15:30:54.537Z,94539.28
2022-10-09T15:33:25.370Z,94534.25
2022-10-09T15:35:52.930Z,94537.47
2022-10-09T15:38:21.930Z,94531.53
2022-10-09T15:40:51.251Z,94529.94
2022-10-09T15:43:19.768Z,94530.06
2022-10-09T15:45:47.708Z,94533.53
2022-10-09T15:48:19.729Z,94523.78
2022-10-09T15:50:50.554Z,94539.53
2022-10-09T15:53:19.285Z,94528.63
2022-10-09T15:55:47.661Z,94531.44
2022-10-09T15:58:15.411Z,94516.16
2022-10-09T16:00:44.098Z,94536.75
2022-10-09T16:03:11.359Z,94530.69
2022-10-09T16:05:39.455Z,94526.97
2022-10-09T16:08:07.014Z,94523.66
2022-10-09T16:10:33.749Z,94509.25
2022-10-09T16:13:01.067Z,94511.94
2022-10-09T16:15:27.794Z,94518.69
2022-10-09T16:17:54.479Z,94504.28
2022-10-09T16:20:21.187Z,94507.72
2022-10-09T16:22:48.152Z,94512.59
2022-10-09T16:25:15.163Z,94506.09
2022-10-09T16:27:41.821Z,94507.19
2022-10-09T16:30:12.063Z,94501.72
2022-10-09T16:32:38.917Z,94506.25
2022-10-09T16:35:05.958Z,94491.81
2022-10-09T16:37:32.729Z,94501.72
2022-10-09T16:39:59.717Z,94506.25
2022-10-09T16:42:26.340Z,94505.91
2022-10-09T16:44:53.121Z,94497.94
2022-10-09T16:47:19.791Z,94499.63
2022-10-09T16:49:46.506Z,94510.72
2022-10-09T16:52:13.170Z,94510.06
2022-10-09T16:54:44.116Z,94498.06
2022-10-09T16:57:10.872Z,94508.25
2022-10-09T16:59:37.998Z,94507.69
2022-10-09T17:02:04.765Z,94511.78
2022-10-09T17:04:31.589Z,94507.06
2022-10-09T17:06:58.263Z,94519.50
2022-10-09T17:09:25.011Z,94516.44
2022-10-09T17:11:51.699Z,94522.69
2022-10-09T17:14:19.384Z,94518.38
2022-10-09T17:16:46.267Z,94514.63
2022-10-09T17:19:13.127Z,94519.22
2022-10-09T17:21:39.759Z,94510.84
2022-10-09T17:24:07.756Z,94511.41
2022-10-09T17:26:35.225Z,94509.59
2022-10-09T17:29:02.711Z,94509.28
2022-10-09T17:31:30.122Z,94515.94
2022-10-09T17:33:58.763Z,94508.34
2022-10-09T17:36:27.364Z,94514.72
2022-10-09T17:38:54.095Z,94517.66
2022-10-09T17:41:24.087Z,94521.97
2022-10-09T17:43:51.600Z,94521.66
2022-10-09T17:46:18.795Z,94519.03
2022-10-09T17:48:50.340Z,94519.25
2022-10-09T17:51:22.978Z,94519.72
2022-10-09T17:53:49.671Z,94519.22
2022-10-09T17:56:16.715Z,94509.78
2022-10-09T17:58:44.654Z,94511.47
2022-10-09T18:01:11.928Z,94522.25
2022-10-09T18:03:39.029Z,94522.16
2022-10-09T18:06:07.837Z,94519.31
2022-10-09T18:08:35.138Z,94520.22
2022-10-09T18:11:07.668Z,94518.63
2022-10-09T18:13:38.138Z,94516.91
2022-10-09T18:16:06.915Z,94517.59
2022-10-09T18:18:34.099Z,94518.28
2022-10-09T18:21:09.098Z,94517.56
2022-10-09T18:23:36.393Z,94520.50
2022-10-09T18:26:11.075Z,94507.56
2022-10-09T18:28:38.429Z,94509.94
2022-10-09T18:31:10.689Z,94507.78
2022-10-09T18:33:37.887Z,94510.75
2022-10-09T18:36:07.675Z,94506.56
2022-10-09T18:38:35.018Z,94509.69
2022-10-09T18:41:02.329Z,94513.56
2022-10-09T18:43:29.424Z,94512.16
2022-10-09T18:45:56.411Z,94508.84
2022-10-09T18:48:23.415Z,94497.84
2022-10-09T18:50:50.150Z,94495.03
2022-10-09T18:53:16.791Z,94491.41
2022-10-09T18:55:44.199Z,94498.28
2022-10-09T18:58:12.521Z,94493.88
2022-10-09T19:00:39.608Z,94485.69
2022-10-09T19:03:06.420Z,94490.53
2022-10-09T19:05:33.218Z,94486.09
2022-10-09T19:07:59.876Z,94492.56
2022-10-09T19:10:26.545Z,94497.63
2022-10-09T19:12:54.436Z,94499.81
2022-10-09T19:15:21.387Z,94503.28
2022-10-09T19:17:48.331Z,94500.31
2022-10-09T19:20:15.126Z,94505.47
2022-10-09T19:22:41.732Z,94506.41
2022-10-09T19:25:09.194Z,94493.22
2022-10-09T19:27:35.827Z,94500.78
2022-10-09T19:30:02.693Z,94501.28
2022-10-09T19:32:29.345Z,94501.56
2022-10-09T19:34:55.929Z,94504.16
2022-10-09T19:37:26.065Z,94486.75
2022-10-09T19:39:56.214Z,94498.97
2022-10-09T19:42:22.953Z,94496.63
2022-10-09T19:44:49.568Z,94499.16
2022-10-09T19:47:18.237Z,94497.34
2022-10-09T19:49:44.853Z,94493.97
2022-10-09T19:52:11.486Z,94488.59
2022-10-09T19:54:40.075Z,94497.63
2022-10-09T19:57:06.788Z,94504.38
2022-10-09T19:59:33.366Z,94508.50
2022-10-09T20:02:00.207Z,94492.16
2022-10-09T20:04:26.859Z,94491.13
2022-10-09T20:06:53.466Z,94497.50
2022-10-09T20:09:20.930Z,94499.53
2022-10-09T20:11:47.706Z,94500.09
2022-10-09T20:14:14.321Z,94479.34
2022-10-09T20:16:41.028Z,94495.91
2022-10-09T20:19:07.732Z,94498.50
2022-10-09T20:21:34.864Z,94493.41
2022-10-09T20:24:01.571Z,94498.84
2022-10-09T20:26:29.821Z,94496.38
2022-10-09T20:28:56.454Z,94487.31
2022-10-09T20:31:25.612Z,94497.25
2022-10-09T20:33:53.374Z,94498.16
2022-10-09T20:36:48.257Z,94492.53
2022-10-09T20:39:15.778Z,94500.31
2022-10-09T20:41:43.367Z,94493.28
2022-10-09T20:44:11.452Z,94501.28
2022-10-09T20:46:39.005Z,94492.84
2022-10-09T20:49:07.802Z,94489.88
2022-10-09T20:51:35.871Z,94491.78
2022-10-09T20:54:03.112Z,94490.63
2022-10-09T20:56:32.009Z,94484.13
2022-10-09T20:59:00.010Z,94485.56
2022-10-09T21:01:28.405Z,94489.41
2022-10-09T21:03:56.801Z,94488.63
2022-10-09T21:06:23.569Z,94490.66
2022-10-09T21:08:50.489Z,94482.06
2022-10-09T21:11:18.474Z,94485.44
2022-10-09T21:13:45.638Z,94479.06
2022-10-09T21:16:15.515Z,94487.44
2022-10-09T21:18:42.118Z,94480.66
2022-10-09T21:21:11.455Z,94472.38
2022-10-09T21:23:38.356Z,94484.66
2022-10-09T21:26:10.054Z,94489.28
2022-10-09T21:28:36.707Z,94481.16
2022-10-09T21:31:10.605Z,94487.31
2022-10-09T21:33:37.610Z,94485.31
2022-10-09T21:36:12.652Z,94482.66
2022-10-09T21:38:39.245Z,94479.25
2022-10-09T21:41:05.814Z,94477.25
2022-10-09T21:43:32.597Z,94476.03
2022-10-09T21:45:59.205Z,94483.03
2022-10-09T21:48:25.794Z,94484.03
2022-10-09T21:50:52.387Z,94473.97
2022-10-09T21:53:18.945Z,94478.31
2022-10-09T21:55:45.706Z,94478.72
2022-10-09T21:58:12.297Z,94481.19
2022-10-09T22:00:38.904Z,94480.63
2022-10-09T22:03:05.806Z,94464.34
2022-10-09T22:05:32.343Z,94474.66
2022-10-09T22:07:58.932Z,94468.94
2022-10-09T22:10:25.546Z,94468.28
2022-10-09T22:12:52.491Z,94468.59
2022-10-09T22:15:19.369Z,94463.06
2022-10-09T22:17:45.904Z,94475.25
2022-10-09T22:20:13.239Z,94469.78
2022-10-09T22:22:39.909Z,94472.25
2022-10-09T22:25:07.151Z,94478.91
2022-10-09T22:27:33.763Z,94476.34
2022-10-09T22:30:00.401Z,94477.47
2022-10-09T22:32:26.966Z,94476.84
2022-10-09T22:34:53.640Z,94474.84
2022-10-09T22:37:20.261Z,94477.84
2022-10-09T22:39:46.923Z,94466.66
2022-10-09T22:42:13.505Z,94466.28
2022-10-09T22:44:40.137Z,94475.84
2022-10-09T22:47:06.749Z,94467.47
2022-10-09T22:49:33.417Z,94471.72
2022-10-09T22:51:59.989Z,94466.16
2022-10-09T22:54:26.597Z,94457.16
2022-10-09T22:56:53.227Z,94452.53
2022-10-09T22:59:19.886Z,94454.31
2022-10-09T23:01:50.112Z,94448.53
2022-10-09T23:04:18.034Z,94448.75
2022-10-09T23:06:45.489Z,94450.38
2022-10-09T23:09:14.584Z,94444.44
2022-10-09T23:11:42.079Z,94454.69
2022-10-09T23:14:10.717Z,94454.09
2022-10-09T23:16:37.539Z,94453.88
2022-10-09T23:19:07.051Z,94444.44
2022-10-09T23:21:35.651Z,94444.97
2022-10-09T23:24:02.452Z,94439.28
2022-10-09T23:26:31.817Z,94445.31
2022-10-09T23:29:07.861Z,94444.50
2022-10-09T23:31:35.398Z,94433.88
2022-10-09T23:34:03.881Z,94436.69
2022-10-09T23:36:30.790Z,94442.13
2022-10-09T23:38:58.329Z,94440.78
2022-10-09T23:41:27.474Z,94435.50
2022-10-09T23:43:54.616Z,94425.31
2022-10-09T23:46:24.097Z,94429.69
2022-10-09T23:48:51.899Z,94436.19
2022-10-09T23:51:19.950Z,94429.63
2022-10-09T23:53:47.050Z,94433.44
2022-10-09T23:56:19.749Z,94433.59
2022-10-09T23:58:46.960Z,94424.94
